Aviation Discussion

.AVIATION...ISSUED 1149 PM EDT WED APR 23 2014 //DISCUSSION... HIGH PRESSURE SETTLING INTO THE REGION WILL BRING VFR CONDITIONS THROUGH 00Z FRIDAY. HIGH/MID CLOUDS WILL INCREASE AND THICKEN OVERNIGHT AND INTO THURSDAY AHEAD OF AN APPROACHING LOW PRESSURE SYSTEM. LIGHT AND VARIABLE WINDS OVERNIGHT WILL BECOME EASTERLY AROUND 10 KNOTS AS THE LOW APPROACHES ON THURSDAY. RAIN FROM THIS SYSTEM IS EXPECTED TO HOLD OFF UNTIL AFTER 06Z FRI. WITH TIMING STILL NOT CERTAIN LATE THURSDAY NIGHT WILL LEAVE DTW DRY LATE THURSDAY NIGHT AS A PROB30 GROUP IS NOT WARRANTED THAT FAR OUT. //DTW THRESHOLD THREATS... * NONE

KDTW 240814Z 2408/2512 11003KT P6SM BKN150
FM241300 12010KT P6SM OVC120
FM250600 10007KT P6SM BKN050 OVC100=

KDET 240520Z 2406/2506 VRB02KT P6SM BKN200
FM241300 13010KT P6SM OVC120=

Cleveland Center Weather Service Unit (CWSU)
Mission:
Our main responsibility is to provide up to the minute weather information to FAA Supervisors and the ZOB Traffic Management Unit (TMU). Some of the products issued by the CWSU are the Center Weather Advisories (CWA) and the Meteorological Impact Statement (MIS). The CWA is an aviation weather warning for thunderstorms, severe icing or turbulence, and low IFR ceilings and visibility. The MIS is a 2-12 hour forecast for weather conditions, which are expected to impact ARTCC operations.
 
Operations:
The Cleveland Center Weather Service Unit (ZOB CWSU) is located at the Federal Aviation Administration (FAA) Air Route Traffic Control Center (ARTCC) in Oberlin, OH. Four National Weather Service meteorologists staff the office. Our hours of operation are from 6:00 A.M. to 9:30 P.M. daily.

Web Site Owner:
NOAA National Weather Service
Cleveland ARTCC Attn:CWSU
326 East Lorain Street
Oberlin, OH 44074
Web Administrator:Webmaster
Page last modified: 23 Feb 2013
Disclaimer
Credits
Glossary
Privacy Policy
About Our Organization
Career Opportunities